createdAt,value
2016-10-26T00:00:21.228Z,12.23
2016-10-26T00:00:47.716Z,12.27
2016-10-26T00:01:09.447Z,12.27
2016-10-26T00:01:31.156Z,12.25
2016-10-26T00:01:52.874Z,12.28
2016-10-26T00:02:14.590Z,12.29
2016-10-26T00:02:36.328Z,12.23
2016-10-26T00:02:58.048Z,12.19
2016-10-26T00:03:19.764Z,12.15
2016-10-26T00:03:41.479Z,12.13
2016-10-26T00:04:03.209Z,12.15
2016-10-26T00:04:24.924Z,12.18
2016-10-26T00:04:46.644Z,12.20
2016-10-26T00:05:08.357Z,12.18
2016-10-26T00:05:30.074Z,12.21
2016-10-26T00:05:51.788Z,12.19
2016-10-26T00:06:13.507Z,12.18
2016-10-26T00:06:35.222Z,12.17
2016-10-26T00:06:56.936Z,12.11
2016-10-26T00:07:18.659Z,12.09
2016-10-26T00:07:40.383Z,12.05
2016-10-26T00:08:02.101Z,12.04
2016-10-26T00:08:23.823Z,12.04
2016-10-26T00:08:45.545Z,11.99
2016-10-26T00:09:07.263Z,11.96
2016-10-26T00:09:28.984Z,11.94
2016-10-26T00:09:50.693Z,11.91
2016-10-26T00:10:12.414Z,11.91
2016-10-26T00:10:34.128Z,11.93
2016-10-26T00:10:55.848Z,11.93
2016-10-26T00:11:17.644Z,11.90
2016-10-26T00:11:39.363Z,11.93
2016-10-26T00:12:01.091Z,11.96
2016-10-26T00:12:22.807Z,12.00
2016-10-26T00:12:44.527Z,12.04
2016-10-26T00:13:06.254Z,12.08
2016-10-26T00:13:27.987Z,12.13
2016-10-26T00:13:49.706Z,12.15
2016-10-26T00:14:11.416Z,12.16
2016-10-26T00:14:33.137Z,12.15
2016-10-26T00:14:54.857Z,12.10
2016-10-26T00:15:16.572Z,12.04
2016-10-26T00:15:38.365Z,12.00
2016-10-26T00:16:00.095Z,11.95
2016-10-26T00:16:21.821Z,11.94
2016-10-26T00:16:43.540Z,11.90
2016-10-26T00:17:05.261Z,11.90
2016-10-26T00:17:26.974Z,11.88
2016-10-26T00:17:48.700Z,11.93
2016-10-26T00:18:10.409Z,11.97
2016-10-26T00:18:32.162Z,12.03
2016-10-26T00:18:58.609Z,12.04
2016-10-26T00:19:20.359Z,11.98
2016-10-26T00:19:42.078Z,11.95
2016-10-26T00:20:03.800Z,11.92
2016-10-26T00:20:25.518Z,11.89
2016-10-26T00:20:47.238Z,11.84
2016-10-26T00:21:09.083Z,11.80
2016-10-26T00:21:30.809Z,11.78
2016-10-26T00:21:52.525Z,11.77
2016-10-26T00:22:14.248Z,11.79
2016-10-26T00:22:35.967Z,11.78
2016-10-26T00:22:57.683Z,11.77
2016-10-26T00:23:19.401Z,11.77
2016-10-26T00:23:41.152Z,11.73
2016-10-26T00:24:02.845Z,11.75
2016-10-26T00:24:24.591Z,11.74
2016-10-26T00:24:46.311Z,11.70
2016-10-26T00:25:08.038Z,11.70
2016-10-26T00:25:29.762Z,11.70
2016-10-26T00:25:51.569Z,11.69
2016-10-26T00:26:13.289Z,11.69
2016-10-26T00:26:35.009Z,11.70
2016-10-26T00:26:56.724Z,11.70
2016-10-26T00:27:18.438Z,11.74
2016-10-26T00:27:40.161Z,11.77
2016-10-26T00:28:01.886Z,11.77
2016-10-26T00:28:23.604Z,11.77
2016-10-26T00:28:45.326Z,11.74
2016-10-26T00:29:07.032Z,11.74
2016-10-26T00:29:28.763Z,11.73
2016-10-26T00:29:50.493Z,11.76
2016-10-26T00:30:12.211Z,11.76
2016-10-26T00:30:33.929Z,11.78
2016-10-26T00:30:55.644Z,11.81
2016-10-26T00:31:17.368Z,11.81
2016-10-26T00:31:39.085Z,11.80
2016-10-26T00:32:00.823Z,11.72
2016-10-26T00:32:22.541Z,11.72
2016-10-26T00:32:44.257Z,11.70
2016-10-26T00:33:05.979Z,11.68
2016-10-26T00:33:27.700Z,11.65
2016-10-26T00:33:49.427Z,11.63
2016-10-26T00:34:11.134Z,11.60
2016-10-26T00:34:32.849Z,11.56
2016-10-26T00:34:54.565Z,11.57
2016-10-26T00:35:16.312Z,11.53
2016-10-26T00:35:38.023Z,11.56
2016-10-26T00:35:59.742Z,11.56
2016-10-26T00:36:21.459Z,11.58
2016-10-26T00:36:43.177Z,11.59
2016-10-26T00:37:04.898Z,11.60
2016-10-26T00:37:26.612Z,11.62
2016-10-26T00:37:48.330Z,11.64
2016-10-26T00:38:10.045Z,11.70
2016-10-26T00:38:31.761Z,11.77
2016-10-26T00:38:53.480Z,11.84
2016-10-26T00:39:15.194Z,11.86
2016-10-26T00:39:36.913Z,11.82
2016-10-26T00:39:58.633Z,11.86
2016-10-26T00:40:20.363Z,11.84
2016-10-26T00:40:42.142Z,11.82
2016-10-26T00:41:03.862Z,11.81
2016-10-26T00:41:25.578Z,11.79
2016-10-26T00:41:47.306Z,11.78
2016-10-26T00:42:09.021Z,11.75
2016-10-26T00:42:30.736Z,11.74
2016-10-26T00:42:52.457Z,11.74
2016-10-26T00:43:14.178Z,11.77
2016-10-26T00:43:35.888Z,11.78
2016-10-26T00:43:57.609Z,11.87
2016-10-26T00:44:19.346Z,11.86
2016-10-26T00:44:41.062Z,11.79
2016-10-26T00:45:02.784Z,11.73
2016-10-26T00:45:24.505Z,11.71
2016-10-26T00:45:46.220Z,11.74
2016-10-26T00:46:07.945Z,11.74
2016-10-26T00:46:29.661Z,11.76
2016-10-26T00:46:51.382Z,11.78
2016-10-26T00:47:13.114Z,11.80
2016-10-26T00:47:34.847Z,11.79
2016-10-26T00:47:56.566Z,11.82
2016-10-26T00:48:18.283Z,11.83
2016-10-26T00:48:39.993Z,11.82
2016-10-26T00:49:06.480Z,11.79
2016-10-26T00:49:28.206Z,11.73
2016-10-26T00:49:49.930Z,11.72
2016-10-26T00:50:11.645Z,11.70
2016-10-26T00:50:33.364Z,11.69
2016-10-26T00:50:55.076Z,11.68
2016-10-26T00:51:16.812Z,11.68
2016-10-26T00:51:38.526Z,11.70
2016-10-26T00:52:00.243Z,11.71
2016-10-26T00:52:21.979Z,11.71
2016-10-26T00:52:43.691Z,11.70
2016-10-26T00:53:05.407Z,11.67
2016-10-26T00:53:27.122Z,11.67
2016-10-26T00:53:48.835Z,11.67
2016-10-26T00:54:10.559Z,11.68
2016-10-26T00:54:32.279Z,11.69
2016-10-26T00:54:53.997Z,11.71
2016-10-26T00:55:15.719Z,11.73
2016-10-26T00:55:37.455Z,11.77
2016-10-26T00:55:59.173Z,11.80
2016-10-26T00:56:20.897Z,11.78
2016-10-26T00:56:42.620Z,11.77
2016-10-26T00:57:04.354Z,11.76
2016-10-26T00:57:26.073Z,11.72
2016-10-26T00:57:47.797Z,11.73
2016-10-26T00:58:09.522Z,11.77
2016-10-26T00:58:31.247Z,11.78
2016-10-26T00:58:52.963Z,11.81
2016-10-26T00:59:14.677Z,11.83
2016-10-26T00:59:41.169Z,11.87
2016-10-26T01:00:02.892Z,11.87
2016-10-26T01:00:24.608Z,11.90
2016-10-26T01:00:46.319Z,11.94
2016-10-26T01:01:08.047Z,11.90
2016-10-26T01:01:29.829Z,11.88
2016-10-26T01:01:51.550Z,11.89
2016-10-26T01:02:13.261Z,11.90
2016-10-26T01:02:34.980Z,11.88
2016-10-26T01:02:56.695Z,11.91
2016-10-26T01:03:18.421Z,11.91
2016-10-26T01:03:40.143Z,11.92
2016-10-26T01:04:01.861Z,11.95
2016-10-26T01:04:23.585Z,11.97
2016-10-26T01:04:45.301Z,11.98
2016-10-26T01:05:07.023Z,12.00
2016-10-26T01:05:28.743Z,12.01
2016-10-26T01:05:55.232Z,12.01
2016-10-26T01:06:16.947Z,12.02
2016-10-26T01:06:38.673Z,12.02
2016-10-26T01:07:00.401Z,11.99
2016-10-26T01:07:22.126Z,12.00
2016-10-26T01:07:43.855Z,12.01
2016-10-26T01:08:05.577Z,12.03
2016-10-26T01:08:27.298Z,12.01
2016-10-26T01:08:49.014Z,12.03
2016-10-26T01:09:10.741Z,11.98
2016-10-26T01:09:32.466Z,11.97
2016-10-26T01:09:54.182Z,11.96
2016-10-26T01:10:15.900Z,11.95
2016-10-26T01:10:42.388Z,11.98
2016-10-26T01:11:04.104Z,11.98
2016-10-26T01:11:25.821Z,11.99
2016-10-26T01:11:47.556Z,12.00
2016-10-26T01:12:09.269Z,12.02
2016-10-26T01:12:30.994Z,12.03
2016-10-26T01:12:52.722Z,12.04
2016-10-26T01:13:14.447Z,12.04
2016-10-26T01:13:36.166Z,12.04
2016-10-26T01:13:57.894Z,12.03
2016-10-26T01:14:19.614Z,11.96
2016-10-26T01:14:41.333Z,11.98
2016-10-26T01:15:03.054Z,11.96
2016-10-26T01:15:24.770Z,11.91
2016-10-26T01:15:46.489Z,11.88
2016-10-26T01:16:08.210Z,11.82
2016-10-26T01:16:29.927Z,11.79
2016-10-26T01:16:51.660Z,11.76
2016-10-26T01:17:13.397Z,11.79
2016-10-26T01:17:35.112Z,11.85
2016-10-26T01:17:56.827Z,11.89
2016-10-26T01:18:18.562Z,11.96
2016-10-26T01:18:40.319Z,11.98
2016-10-26T01:19:02.035Z,11.98
2016-10-26T01:19:23.755Z,11.98
2016-10-26T01:19:45.476Z,11.97
2016-10-26T01:20:07.190Z,11.98
2016-10-26T01:20:28.911Z,11.99
2016-10-26T01:20:50.630Z,11.93
2016-10-26T01:21:12.356Z,11.93
2016-10-26T01:21:34.072Z,11.93
2016-10-26T01:21:55.783Z,11.91
2016-10-26T01:22:17.495Z,11.92
2016-10-26T01:22:44.024Z,11.97
2016-10-26T01:23:05.739Z,11.97
2016-10-26T01:23:27.448Z,11.97
2016-10-26T01:23:49.166Z,12.00
2016-10-26T01:24:10.886Z,12.02
2016-10-26T01:24:32.607Z,12.01
2016-10-26T01:24:54.319Z,11.95
2016-10-26T01:25:16.034Z,11.94
2016-10-26T01:25:37.838Z,11.99
2016-10-26T01:25:59.569Z,11.97
2016-10-26T01:26:21.299Z,11.95
2016-10-26T01:26:43.012Z,11.91
2016-10-26T01:27:09.531Z,11.86
2016-10-26T01:27:31.265Z,11.86
2016-10-26T01:27:52.983Z,11.86
2016-10-26T01:28:14.707Z,11.81
2016-10-26T01:28:36.433Z,11.80
2016-10-26T01:28:58.153Z,11.78
2016-10-26T01:29:19.883Z,11.77
2016-10-26T01:29:41.601Z,11.77
2016-10-26T01:30:03.320Z,11.77
2016-10-26T01:30:25.039Z,11.74
2016-10-26T01:30:46.758Z,11.70
2016-10-26T01:31:08.479Z,11.71
2016-10-26T01:31:30.223Z,11.71
2016-10-26T01:31:51.944Z,11.73
2016-10-26T01:32:13.666Z,11.77
2016-10-26T01:32:35.384Z,11.82
2016-10-26T01:32:57.108Z,11.87
2016-10-26T01:33:18.825Z,11.88
2016-10-26T01:33:40.542Z,11.88
2016-10-26T01:34:02.275Z,11.89
2016-10-26T01:34:24.003Z,11.87
2016-10-26T01:34:45.722Z,11.83
2016-10-26T01:35:07.452Z,11.82
2016-10-26T01:35:29.164Z,11.80
2016-10-26T01:35:50.888Z,11.77
2016-10-26T01:36:12.607Z,11.77
2016-10-26T01:36:34.335Z,11.77
2016-10-26T01:36:56.063Z,11.77
2016-10-26T01:37:17.777Z,11.77
2016-10-26T01:37:39.589Z,11.77
2016-10-26T01:38:01.306Z,11.76
2016-10-26T01:38:23.025Z,11.76
2016-10-26T01:38:44.743Z,11.83
2016-10-26T01:39:06.476Z,11.86
2016-10-26T01:39:28.195Z,11.85
2016-10-26T01:39:49.921Z,11.85
2016-10-26T01:40:11.636Z,11.85
2016-10-26T01:40:33.350Z,11.88
2016-10-26T01:40:55.070Z,11.93
2016-10-26T01:41:16.814Z,11.98
2016-10-26T01:41:38.534Z,11.98
2016-10-26T01:42:00.251Z,11.96
2016-10-26T01:42:21.969Z,11.92
2016-10-26T01:42:43.701Z,11.93
2016-10-26T01:43:05.445Z,11.92
2016-10-26T01:43:27.157Z,11.93
2016-10-26T01:43:48.886Z,11.96
2016-10-26T01:44:10.606Z,11.94
2016-10-26T01:44:32.321Z,11.89
2016-10-26T01:44:54.054Z,11.84
2016-10-26T01:45:15.769Z,11.81
2016-10-26T01:45:37.491Z,11.78
2016-10-26T01:45:59.226Z,11.79
2016-10-26T01:46:20.940Z,11.76
2016-10-26T01:46:42.661Z,11.81
2016-10-26T01:47:04.373Z,11.86
2016-10-26T01:47:26.094Z,11.86
2016-10-26T01:47:47.809Z,11.83
2016-10-26T01:48:09.523Z,11.83
2016-10-26T01:48:31.238Z,11.78
2016-10-26T01:48:52.963Z,11.73
2016-10-26T01:49:14.678Z,11.71
2016-10-26T01:49:36.410Z,11.68
2016-10-26T01:49:58.122Z,11.70
2016-10-26T01:50:19.845Z,11.69
2016-10-26T01:50:41.561Z,11.67
2016-10-26T01:51:03.274Z,11.69
2016-10-26T01:51:25.001Z,11.72
2016-10-26T01:51:46.721Z,11.76
2016-10-26T01:52:08.440Z,11.79
2016-10-26T01:52:30.174Z,11.81
2016-10-26T01:52:51.891Z,11.78
2016-10-26T01:53:13.612Z,11.79
2016-10-26T01:53:35.329Z,11.83
2016-10-26T01:53:57.048Z,11.87
2016-10-26T01:54:18.766Z,11.86
2016-10-26T01:54:40.503Z,11.86
2016-10-26T01:55:02.221Z,11.85
2016-10-26T01:55:23.938Z,11.83
2016-10-26T01:55:48.583Z,11.81
2016-10-26T01:56:10.373Z,11.85
2016-10-26T01:56:36.889Z,11.87
2016-10-26T01:56:58.606Z,11.86
2016-10-26T01:57:20.332Z,11.83
2016-10-26T01:57:42.051Z,11.83
2016-10-26T01:58:03.782Z,11.85
2016-10-26T01:58:25.485Z,11.84
2016-10-26T01:58:47.198Z,11.84
2016-10-26T01:59:08.920Z,11.82
2016-10-26T01:59:30.671Z,11.82
2016-10-26T01:59:52.393Z,11.83
2016-10-26T02:00:14.203Z,11.85
2016-10-26T02:00:35.923Z,11.84
2016-10-26T02:00:57.653Z,11.85
2016-10-26T02:01:19.366Z,11.81
2016-10-26T02:01:41.083Z,11.85
2016-10-26T02:02:07.686Z,11.86
2016-10-26T02:02:29.406Z,11.80
2016-10-26T02:02:51.124Z,11.78
2016-10-26T02:03:12.837Z,11.84
2016-10-26T02:03:34.560Z,11.85
2016-10-26T02:03:56.294Z,11.89
2016-10-26T02:04:18.008Z,11.88
2016-10-26T02:04:39.728Z,11.86
2016-10-26T02:05:01.447Z,11.81
2016-10-26T02:05:23.159Z,11.83
2016-10-26T02:05:44.882Z,11.85
2016-10-26T02:06:06.597Z,11.87
2016-10-26T02:06:28.326Z,11.91
2016-10-26T02:06:50.099Z,11.93
2016-10-26T02:07:11.996Z,11.89
2016-10-26T02:07:33.725Z,11.81
2016-10-26T02:07:55.433Z,11.82
2016-10-26T02:08:17.151Z,11.86
2016-10-26T02:08:38.859Z,11.81
2016-10-26T02:09:00.574Z,11.80
2016-10-26T02:09:22.289Z,11.82
2016-10-26T02:09:44.018Z,11.80
2016-10-26T02:10:05.747Z,11.80
2016-10-26T02:10:27.467Z,11.80
2016-10-26T02:10:49.192Z,11.78
2016-10-26T02:11:10.932Z,11.82
2016-10-26T02:11:32.651Z,11.87
2016-10-26T02:11:54.369Z,11.82
2016-10-26T02:12:16.112Z,11.75
2016-10-26T02:12:37.835Z,11.75
2016-10-26T02:12:59.556Z,11.77
2016-10-26T02:13:21.270Z,11.80
2016-10-26T02:13:42.989Z,11.84
2016-10-26T02:14:04.706Z,11.86
2016-10-26T02:14:26.426Z,11.90
2016-10-26T02:14:48.151Z,11.93
2016-10-26T02:15:09.869Z,11.93
2016-10-26T02:15:31.596Z,11.89
2016-10-26T02:15:53.312Z,11.86
2016-10-26T02:16:15.030Z,11.82
2016-10-26T02:16:36.745Z,11.81
2016-10-26T02:16:58.461Z,11.79
2016-10-26T02:17:20.179Z,11.76
2016-10-26T02:17:41.892Z,11.73
2016-10-26T02:18:03.624Z,11.69
2016-10-26T02:18:25.337Z,11.69
2016-10-26T02:18:47.052Z,11.65
2016-10-26T02:19:08.781Z,11.62
2016-10-26T02:19:30.613Z,11.64
2016-10-26T02:19:52.346Z,11.63
2016-10-26T02:20:14.057Z,11.66
2016-10-26T02:20:35.776Z,11.70
2016-10-26T02:20:57.499Z,11.71
2016-10-26T02:21:19.213Z,11.73
2016-10-26T02:21:40.935Z,11.72
2016-10-26T02:22:02.656Z,11.69
2016-10-26T02:22:24.370Z,11.68
2016-10-26T02:22:46.102Z,11.66
2016-10-26T02:23:07.820Z,11.67
2016-10-26T02:23:29.539Z,11.71
2016-10-26T02:23:51.279Z,11.70
2016-10-26T02:24:12.999Z,11.75
2016-10-26T02:24:34.712Z,11.79
2016-10-26T02:24:56.426Z,11.76
2016-10-26T02:25:18.145Z,11.80
2016-10-26T02:25:39.869Z,11.77
2016-10-26T02:26:01.622Z,11.71
2016-10-26T02:26:23.317Z,11.66
2016-10-26T02:26:45.037Z,11.67
2016-10-26T02:27:06.766Z,11.61
2016-10-26T02:27:28.483Z,11.60
2016-10-26T02:27:50.200Z,11.66
2016-10-26T02:28:11.925Z,11.67
2016-10-26T02:28:33.641Z,11.65
2016-10-26T02:28:55.361Z,11.65
2016-10-26T02:29:17.076Z,11.67
2016-10-26T02:29:38.796Z,11.75
2016-10-26T02:30:00.508Z,11.79
2016-10-26T02:30:22.225Z,11.77
2016-10-26T02:30:43.938Z,11.77
2016-10-26T02:31:05.663Z,11.76
2016-10-26T02:31:27.375Z,11.73
2016-10-26T02:31:49.093Z,11.70
2016-10-26T02:32:10.815Z,11.67
2016-10-26T02:32:32.535Z,11.64
2016-10-26T02:32:57.059Z,11.67
2016-10-26T02:33:18.769Z,11.65
2016-10-26T02:33:40.487Z,11.64
2016-10-26T02:34:02.204Z,11.61
2016-10-26T02:34:23.934Z,11.63
2016-10-26T02:34:45.651Z,11.59
2016-10-26T02:35:07.371Z,11.54
2016-10-26T02:35:29.096Z,11.55
2016-10-26T02:35:50.810Z,11.64
2016-10-26T02:36:12.543Z,11.68
2016-10-26T02:36:34.259Z,11.71
2016-10-26T02:36:55.981Z,11.76
2016-10-26T02:37:17.715Z,11.77
2016-10-26T02:37:39.435Z,11.74
2016-10-26T02:38:01.153Z,11.68
2016-10-26T02:38:22.864Z,11.70
2016-10-26T02:38:44.576Z,11.72
2016-10-26T02:39:06.292Z,11.72
2016-10-26T02:39:28.013Z,11.76
2016-10-26T02:39:49.726Z,11.76
2016-10-26T02:40:11.442Z,11.74
2016-10-26T02:40:33.155Z,11.74
2016-10-26T02:40:54.869Z,11.70
2016-10-26T02:41:16.590Z,11.67
2016-10-26T02:41:38.307Z,11.68
2016-10-26T02:42:00.044Z,11.71
2016-10-26T02:42:21.756Z,11.72
2016-10-26T02:42:43.472Z,11.74
2016-10-26T02:43:05.190Z,11.77
2016-10-26T02:43:26.906Z,11.81
2016-10-26T02:43:48.624Z,11.84
2016-10-26T02:44:10.347Z,11.83
2016-10-26T02:44:32.065Z,11.82
2016-10-26T02:44:53.783Z,11.79
2016-10-26T02:45:15.500Z,11.80
2016-10-26T02:45:37.213Z,11.81
2016-10-26T02:45:58.935Z,11.81
2016-10-26T02:46:20.659Z,11.79
2016-10-26T02:46:42.375Z,11.76
2016-10-26T02:47:08.879Z,11.73
2016-10-26T02:47:30.593Z,11.72
2016-10-26T02:47:52.309Z,11.67
2016-10-26T02:48:14.030Z,11.67
2016-10-26T02:48:35.739Z,11.68
2016-10-26T02:48:57.457Z,11.68
2016-10-26T02:49:19.177Z,11.67
2016-10-26T02:49:40.885Z,11.64
2016-10-26T02:50:02.668Z,11.62
2016-10-26T02:50:24.388Z,11.63
2016-10-26T02:50:46.114Z,11.62
2016-10-26T02:51:07.825Z,11.59
2016-10-26T02:51:29.573Z,11.54
2016-10-26T02:51:51.300Z,11.50
2016-10-26T02:52:13.023Z,11.50
2016-10-26T02:52:34.735Z,11.53
2016-10-26T02:52:56.460Z,11.60
2016-10-26T02:53:18.173Z,11.67
2016-10-26T02:53:39.914Z,11.71
2016-10-26T02:54:01.633Z,11.73
2016-10-26T02:54:23.345Z,11.76
2016-10-26T02:54:45.070Z,11.78
2016-10-26T02:55:06.786Z,11.80
2016-10-26T02:55:28.504Z,11.83
2016-10-26T02:55:50.222Z,11.81
2016-10-26T02:56:12.047Z,11.83
2016-10-26T02:56:33.763Z,11.84
2016-10-26T02:56:55.475Z,11.85
2016-10-26T02:57:17.194Z,11.83
2016-10-26T02:57:38.915Z,11.80
2016-10-26T02:58:00.645Z,11.80
2016-10-26T02:58:22.365Z,11.83
2016-10-26T02:58:44.081Z,11.80
2016-10-26T02:59:05.804Z,11.73
2016-10-26T02:59:27.519Z,11.73
2016-10-26T02:59:49.242Z,11.72
2016-10-26T03:00:10.959Z,11.71
2016-10-26T03:00:32.668Z,11.73
2016-10-26T03:00:54.387Z,11.75
2016-10-26T03:01:16.108Z,11.73
2016-10-26T03:01:37.831Z,11.74
2016-10-26T03:01:59.547Z,11.70
2016-10-26T03:02:21.264Z,11.70
2016-10-26T03:02:42.981Z,11.68
2016-10-26T03:03:04.693Z,11.69
2016-10-26T03:03:26.411Z,11.72
2016-10-26T03:03:48.125Z,11.76
2016-10-26T03:04:09.840Z,11.77
2016-10-26T03:04:31.560Z,11.79
2016-10-26T03:04:53.278Z,11.75
2016-10-26T03:05:14.995Z,11.70
2016-10-26T03:05:36.715Z,11.67
2016-10-26T03:05:58.436Z,11.65
2016-10-26T03:06:20.177Z,11.63
2016-10-26T03:06:41.906Z,11.63
2016-10-26T03:07:03.621Z,11.63
2016-10-26T03:07:25.341Z,11.61
2016-10-26T03:07:47.055Z,11.61
2016-10-26T03:08:08.774Z,11.59
2016-10-26T03:08:30.490Z,11.56
2016-10-26T03:08:52.223Z,11.55
2016-10-26T03:09:13.948Z,11.57
2016-10-26T03:09:35.675Z,11.62
2016-10-26T03:09:57.389Z,11.62
2016-10-26T03:10:19.107Z,11.60
2016-10-26T03:10:40.819Z,11.59
2016-10-26T03:11:02.548Z,11.60
2016-10-26T03:11:24.277Z,11.63
2016-10-26T03:11:45.995Z,11.67
2016-10-26T03:12:07.732Z,11.69
2016-10-26T03:12:29.431Z,11.68
2016-10-26T03:12:51.150Z,11.70
2016-10-26T03:13:12.875Z,11.68
2016-10-26T03:13:34.607Z,11.68
2016-10-26T03:13:56.317Z,11.69
2016-10-26T03:14:18.032Z,11.71
2016-10-26T03:14:39.759Z,11.72
2016-10-26T03:15:01.480Z,11.74
2016-10-26T03:15:23.197Z,11.77
2016-10-26T03:15:44.912Z,11.82
2016-10-26T03:16:06.636Z,11.83
2016-10-26T03:16:28.351Z,11.83
2016-10-26T03:16:50.093Z,11.76
2016-10-26T03:17:11.836Z,11.70
2016-10-26T03:17:33.548Z,11.65
2016-10-26T03:17:55.265Z,11.59
2016-10-26T03:18:16.980Z,11.52
2016-10-26T03:18:38.706Z,11.49
2016-10-26T03:19:00.428Z,11.49
2016-10-26T03:19:22.147Z,11.48
2016-10-26T03:19:43.986Z,11.48
2016-10-26T03:20:05.711Z,11.48
2016-10-26T03:20:27.430Z,11.53
2016-10-26T03:20:49.148Z,11.56
2016-10-26T03:21:10.874Z,11.62
2016-10-26T03:21:32.615Z,11.65
2016-10-26T03:21:54.329Z,11.63
2016-10-26T03:22:16.047Z,11.59
2016-10-26T03:22:37.771Z,11.58
2016-10-26T03:22:59.487Z,11.63
2016-10-26T03:23:21.209Z,11.67
2016-10-26T03:23:42.950Z,11.70
2016-10-26T03:24:04.659Z,11.67
2016-10-26T03:24:26.381Z,11.67
2016-10-26T03:24:48.102Z,11.69
2016-10-26T03:25:09.850Z,11.70
2016-10-26T03:25:31.537Z,11.71
2016-10-26T03:25:53.255Z,11.73
2016-10-26T03:26:14.986Z,11.71
2016-10-26T03:26:36.699Z,11.70
2016-10-26T03:26:58.417Z,11.71
2016-10-26T03:27:20.134Z,11.77
2016-10-26T03:27:41.850Z,11.75
2016-10-26T03:28:03.624Z,11.76
2016-10-26T03:28:25.340Z,11.79
2016-10-26T03:28:47.149Z,11.81
2016-10-26T03:29:08.959Z,11.79
2016-10-26T03:29:30.674Z,11.78
2016-10-26T03:29:52.395Z,11.76
2016-10-26T03:30:14.113Z,11.73
2016-10-26T03:30:35.834Z,11.73
2016-10-26T03:30:57.541Z,11.71
2016-10-26T03:31:19.261Z,11.68
2016-10-26T03:31:40.973Z,11.69
2016-10-26T03:32:02.690Z,11.64
2016-10-26T03:32:24.485Z,11.68
2016-10-26T03:32:46.209Z,11.63
2016-10-26T03:33:07.920Z,11.61
2016-10-26T03:33:29.638Z,11.60
2016-10-26T03:33:51.360Z,11.64
2016-10-26T03:34:17.901Z,11.68
2016-10-26T03:34:39.619Z,11.66
2016-10-26T03:35:01.356Z,11.64
2016-10-26T03:35:23.078Z,11.64
2016-10-26T03:35:44.795Z,11.66
2016-10-26T03:36:06.506Z,11.67
2016-10-26T03:36:28.237Z,11.68
2016-10-26T03:36:49.957Z,11.68
2016-10-26T03:37:11.746Z,11.71
2016-10-26T03:37:33.465Z,11.72
2016-10-26T03:37:55.180Z,11.72
2016-10-26T03:38:16.910Z,11.75
2016-10-26T03:38:38.727Z,11.72
2016-10-26T03:39:00.466Z,11.69
2016-10-26T03:39:22.183Z,11.63
2016-10-26T03:39:43.896Z,11.61
2016-10-26T03:40:05.619Z,11.61
2016-10-26T03:40:27.336Z,11.62
2016-10-26T03:40:49.049Z,11.67
2016-10-26T03:41:10.771Z,11.66
2016-10-26T03:41:32.520Z,11.68
2016-10-26T03:41:54.237Z,11.71
2016-10-26T03:42:15.960Z,11.68
2016-10-26T03:42:37.676Z,11.64
2016-10-26T03:42:59.386Z,11.63
2016-10-26T03:43:21.106Z,11.62
2016-10-26T03:43:42.833Z,11.60
2016-10-26T03:44:04.554Z,11.64
2016-10-26T03:44:26.272Z,11.64
2016-10-26T03:44:47.999Z,11.62
2016-10-26T03:45:09.735Z,11.62
2016-10-26T03:45:31.442Z,11.63
2016-10-26T03:45:53.165Z,11.64
2016-10-26T03:46:14.880Z,11.65
2016-10-26T03:46:36.602Z,11.66
2016-10-26T03:46:58.322Z,11.62
2016-10-26T03:47:20.046Z,11.62
2016-10-26T03:47:41.866Z,11.59
2016-10-26T03:48:03.592Z,11.59
2016-10-26T03:48:25.306Z,11.64
2016-10-26T03:48:47.027Z,11.69
2016-10-26T03:49:08.746Z,11.71
2016-10-26T03:49:30.467Z,11.73
2016-10-26T03:49:52.199Z,11.73
2016-10-26T03:50:13.914Z,11.76
2016-10-26T03:50:35.637Z,11.77
2016-10-26T03:50:57.353Z,11.74
2016-10-26T03:51:19.073Z,11.73
2016-10-26T03:51:40.788Z,11.73
2016-10-26T03:52:02.541Z,11.72
2016-10-26T03:52:24.242Z,11.72
2016-10-26T03:52:45.973Z,11.70
2016-10-26T03:53:07.689Z,11.66
2016-10-26T03:53:29.406Z,11.65
2016-10-26T03:53:51.127Z,11.66
2016-10-26T03:54:12.844Z,11.66
2016-10-26T03:54:34.561Z,11.67
2016-10-26T03:54:56.295Z,11.65
2016-10-26T03:55:18.014Z,11.66
2016-10-26T03:55:39.729Z,11.62
2016-10-26T03:56:01.446Z,11.61
2016-10-26T03:56:23.169Z,11.60
2016-10-26T03:56:44.891Z,11.65
2016-10-26T03:57:06.615Z,11.69
2016-10-26T03:57:28.327Z,11.68
2016-10-26T03:57:50.054Z,11.68
2016-10-26T03:58:11.762Z,11.67
2016-10-26T03:58:33.506Z,11.68
2016-10-26T03:58:55.227Z,11.72
2016-10-26T03:59:16.961Z,11.73
2016-10-26T03:59:38.694Z,11.68
2016-10-26T04:00:00.440Z,11.65
2016-10-26T04:00:22.169Z,11.62
2016-10-26T04:00:43.889Z,11.56
2016-10-26T04:01:05.617Z,11.55
2016-10-26T04:01:27.330Z,11.57
2016-10-26T04:01:49.045Z,11.60
2016-10-26T04:02:10.773Z,11.67
2016-10-26T04:02:32.484Z,11.71
2016-10-26T04:02:54.202Z,11.70
2016-10-26T04:03:15.934Z,11.65
2016-10-26T04:03:37.722Z,11.69
2016-10-26T04:03:59.442Z,11.66
2016-10-26T04:04:21.193Z,11.60
2016-10-26T04:04:42.920Z,11.57
2016-10-26T04:05:05.636Z,11.60
2016-10-26T04:05:27.363Z,11.64
2016-10-26T04:05:49.075Z,11.66
2016-10-26T04:06:10.792Z,11.69
2016-10-26T04:06:32.511Z,11.68
2016-10-26T04:06:54.237Z,11.63
2016-10-26T04:07:15.951Z,11.59
2016-10-26T04:07:37.693Z,11.63
2016-10-26T04:07:59.405Z,11.64
2016-10-26T04:08:21.203Z,11.64
2016-10-26T04:08:42.925Z,11.61
2016-10-26T04:09:04.648Z,11.62
2016-10-26T04:09:26.367Z,11.64
2016-10-26T04:09:48.080Z,11.66
2016-10-26T04:10:09.803Z,11.64
2016-10-26T04:10:31.524Z,11.66
2016-10-26T04:10:53.242Z,11.69
2016-10-26T04:11:14.968Z,11.71
2016-10-26T04:11:36.682Z,11.68
2016-10-26T04:11:58.400Z,11.64
2016-10-26T04:12:20.120Z,11.62
2016-10-26T04:12:41.851Z,11.62
2016-10-26T04:13:03.564Z,11.64
2016-10-26T04:13:25.288Z,11.56
2016-10-26T04:13:47.077Z,11.55
2016-10-26T04:14:08.796Z,11.62
2016-10-26T04:14:31.508Z,11.62
2016-10-26T04:14:53.228Z,11.62
2016-10-26T04:15:14.949Z,11.62
2016-10-26T04:15:36.684Z,11.59
2016-10-26T04:15:58.402Z,11.60
2016-10-26T04:16:20.190Z,11.60
2016-10-26T04:16:41.920Z,11.56
2016-10-26T04:17:03.617Z,11.54
2016-10-26T04:17:25.335Z,11.53
2016-10-26T04:17:47.057Z,11.53
2016-10-26T04:18:08.773Z,11.59
2016-10-26T04:18:30.495Z,11.60
2016-10-26T04:18:52.211Z,11.64
2016-10-26T04:19:13.942Z,11.63
2016-10-26T04:19:35.657Z,11.63
2016-10-26T04:19:57.372Z,11.62
2016-10-26T04:20:19.171Z,11.56
2016-10-26T04:20:40.890Z,11.58
2016-10-26T04:21:02.611Z,11.53
2016-10-26T04:21:24.322Z,11.51
2016-10-26T04:21:46.040Z,11.49
2016-10-26T04:22:07.757Z,11.52
2016-10-26T04:22:29.485Z,11.54
2016-10-26T04:22:51.221Z,11.54
2016-10-26T04:23:12.941Z,11.53
2016-10-26T04:23:34.653Z,11.53
2016-10-26T04:23:56.386Z,11.54
2016-10-26T04:24:18.106Z,11.54
2016-10-26T04:24:39.851Z,11.55
2016-10-26T04:25:01.564Z,11.56
2016-10-26T04:25:23.286Z,11.58
2016-10-26T04:25:45.005Z,11.54
2016-10-26T04:26:11.524Z,11.51
2016-10-26T04:26:33.275Z,11.52
2016-10-26T04:26:54.985Z,11.55
2016-10-26T04:27:16.703Z,11.53
2016-10-26T04:27:38.528Z,11.52
2016-10-26T04:28:00.257Z,11.55
2016-10-26T04:28:22.979Z,11.50
2016-10-26T04:28:44.708Z,11.47
2016-10-26T04:29:06.426Z,11.49
2016-10-26T04:29:28.149Z,11.51
2016-10-26T04:29:49.886Z,11.48
2016-10-26T04:30:11.707Z,11.49
2016-10-26T04:30:33.428Z,11.50
2016-10-26T04:30:55.161Z,11.53
2016-10-26T04:31:16.874Z,11.59
2016-10-26T04:31:38.598Z,11.64
2016-10-26T04:32:00.321Z,11.64
2016-10-26T04:32:22.042Z,11.60
2016-10-26T04:32:43.762Z,11.59
2016-10-26T04:33:05.470Z,11.58
2016-10-26T04:33:27.197Z,11.60
2016-10-26T04:33:48.924Z,11.56
2016-10-26T04:34:10.646Z,11.55
2016-10-26T04:34:32.369Z,11.55
2016-10-26T04:34:54.088Z,11.59
2016-10-26T04:35:15.809Z,11.55
2016-10-26T04:35:37.525Z,11.53
2016-10-26T04:35:59.255Z,11.55
2016-10-26T04:36:20.974Z,11.60
2016-10-26T04:36:42.694Z,11.62
2016-10-26T04:37:04.424Z,11.62
2016-10-26T04:37:26.142Z,11.56
2016-10-26T04:37:47.858Z,11.56
2016-10-26T04:38:09.577Z,11.63
2016-10-26T04:38:31.300Z,11.60
2016-10-26T04:38:53.021Z,11.55
2016-10-26T04:39:14.733Z,11.53
2016-10-26T04:39:36.444Z,11.55
2016-10-26T04:39:58.172Z,11.55
2016-10-26T04:40:19.901Z,11.51
2016-10-26T04:40:41.620Z,11.56
2016-10-26T04:41:03.342Z,11.54